^^
Peaceful Hills Weather Station Historical Data
 
Daily Summary for October 02, 2022 Units:  English    Metric   Both
Daily Weekly Monthly Yearly
  Current: High: Low: Average:
Temperature: 45.7 °F 52.3 °F 45.7 °F 48.2 °F
Dew Point: 42.9 °F 45.8 °F 42.7 °F 44 °F
Humidity: 90% 90% 77.4% 85%
Wind Speed: 0mph 0.8mph 0mph 0mph
Wind Gust: 0mph 4mph - -
WindCalm - - SSW
Pressure: 30.17 in 30.17 in 30.12 in -
Precipitation: 0.00 in      
 
 
Tabular Data for October 02, 2022
Time Temperature Dew Point Pressure Wind Wind Speed Wind Gust Humidity Rainfall Rate (Hourly)
00:09 52.3 °F 45.5 °F 30.12 in Calm     77.4% 0.00 in
00:14 52.2 °F 45.7 °F 30.12 in Calm     78.6% 0.00 in
00:19 52 °F 45.8 °F 30.12 in Calm     79.2% 0.00 in
00:24 51.8 °F 45.8 °F 30.12 in Calm     80% 0.00 in
00:29 51.6 °F 45.6 °F 30.12 in Calm     80% 0.00 in
00:34 51.4 °F 45.4 °F 30.12 in Calm     80% 0.00 in
00:39 51.2 °F 45.2 °F 30.12 in Calm     80% 0.00 in
00:44 51 °F 45 °F 30.12 in Calm     80% 0.00 in
00:49 50.8 °F 44.9 °F 30.12 in Calm     80% 0.00 in
00:54 50.5 °F 44.9 °F 30.12 in Calm     81% 0.00 in
00:59 50.4 °F 44.8 °F 30.12 in Calm     81% 0.00 in
01:04 50.2 °F 44.6 °F 30.13 in Calm     81% 0.00 in
01:09 50.1 °F 44.5 °F 30.13 in Calm     81% 0.00 in
01:14 50 °F 44.5 °F 30.13 in Calm     81.4% 0.00 in
01:19 49.9 °F 44.6 °F 30.13 in Calm   2 mph 82% 0.00 in
01:24 49.7 °F 44.6 °F 30.13 in NNW 0.4 mph 2 mph 82.6% 0.00 in
01:29 49.6 °F 44.5 °F 30.13 in Calm     82.8% 0.00 in
01:34 49.4 °F 44.3 °F 30.13 in Calm     82.4% 0.00 in
01:39 49.2 °F 44.3 °F 30.13 in Calm     83% 0.00 in
01:44 49.1 °F 44.2 °F 30.14 in Calm     83% 0.00 in
01:49 49 °F 44.1 °F 30.13 in Calm     83% 0.00 in
01:54 48.9 °F 44 °F 30.13 in Calm     83% 0.00 in
01:59 48.8 °F 43.9 °F 30.14 in Calm     83% 0.00 in
02:04 48.7 °F 43.8 °F 30.14 in Calm     83% 0.00 in
02:09 48.7 °F 43.9 °F 30.14 in Calm     83.4% 0.00 in
02:14 48.6 °F 44 °F 30.14 in Calm     84% 0.00 in
02:19 48.5 °F 43.9 °F 30.14 in Calm     84% 0.00 in
02:24 48.4 °F 44 °F 30.15 in Calm     84.6% 0.00 in
02:29 48.3 °F 44 °F 30.15 in Calm     85% 0.00 in
02:34 48.3 °F 44 °F 30.15 in Calm     85.2% 0.00 in
02:39 48.2 °F 44.2 °F 30.15 in Calm     86% 0.00 in
02:44 48.1 °F 44 °F 30.15 in Calm     85.6% 0.00 in
02:49 48.1 °F 44.1 °F 30.15 in Calm     86% 0.00 in
02:54 48 °F 44 °F 30.15 in Calm     86% 0.00 in
02:59 47.9 °F 43.9 °F 30.15 in Calm     86% 0.00 in
03:04 47.8 °F 43.8 °F 30.15 in Calm     86% 0.00 in
03:09 47.7 °F 43.7 °F 30.15 in Calm     86% 0.00 in
03:14 47.6 °F 43.6 °F 30.15 in Calm     86% 0.00 in
03:19 47.5 °F 43.6 °F 30.15 in Calm     86.2% 0.00 in
03:24 47.4 °F 43.5 °F 30.15 in Calm     86.4% 0.00 in
03:29 47.4 °F 43.7 °F 30.15 in Calm     87% 0.00 in
03:34 47.4 °F 43.9 °F 30.15 in Calm     87.8% 0.00 in
03:39 47.4 °F 44 °F 30.15 in Calm     88% 0.00 in
03:44 47.3 °F 43.9 °F 30.15 in Calm     88% 0.00 in
03:49 47.3 °F 43.9 °F 30.15 in Calm     88% 0.00 in
03:54 47.2 °F 43.8 °F 30.15 in Calm     88% 0.00 in
03:59 47.2 °F 43.8 °F 30.15 in Calm     88% 0.00 in
04:04 47 °F 43.6 °F 30.15 in Calm     88% 0.00 in
04:09 47 °F 43.6 °F 30.15 in Calm     88% 0.00 in
04:14 46.9 °F 43.5 °F 30.15 in Calm     88% 0.00 in
04:19 46.8 °F 43.5 °F 30.15 in Calm     88.2% 0.00 in
04:24 46.7 °F 43.4 °F 30.16 in Calm     88.4% 0.00 in
04:29 46.6 °F 43.5 °F 30.16 in Calm     89% 0.00 in
04:34 46.5 °F 43.4 °F 30.16 in Calm     89% 0.00 in
04:39 46.5 °F 43.4 °F 30.16 in Calm     89% 0.00 in
04:44 46.4 °F 43.3 °F 30.16 in Calm     89% 0.00 in
04:49 46.3 °F 43.2 °F 30.16 in Calm     89% 0.00 in
04:54 46.3 °F 43.2 °F 30.16 in Calm     89% 0.00 in
04:59 46.2 °F 43.1 °F 30.16 in Calm     89% 0.00 in
05:04 46.1 °F 43.1 °F 30.16 in Calm     89.2% 0.00 in
05:09 46.1 °F 43.3 °F 30.16 in Calm     90% 0.00 in
05:14 46 °F 43 °F 30.16 in Calm     89.2% 0.00 in
05:19 45.9 °F 42.8 °F 30.16 in Calm     89% 0.00 in
05:24 45.8 °F 42.7 °F 30.17 in East 0.8 mph 4 mph 89% 0.00 in
05:29 45.8 °F 42.9 °F 30.17 in Calm   4 mph 89.8% 0.00 in
05:34 45.8 °F 43 °F 30.17 in Calm   2 mph 90% 0.00 in
05:39 45.7 °F 42.9 °F 30.17 in Calm   2 mph 90% 0.00 in
05:44 45.7 °F 42.9 °F 30.17 in Calm     90% 0.00 in
Compliments of Weather Underground - 2 mb